Time;durP1;ratioP1;P1;durP2;ratioP2;P2;SDS_P1;SDS_P2;PMS_P1;PMS_P2;Temp;Humidity;BMP_temperature;BMP_pressure;BME280_temperature;BME280_humidity;BME280_pressure;Samples;Min_cycle;Max_cycle;Signal;HPM_P1;HPM_P2
2021/12/04 00:02:01;;;;;;;28.60;14.70;;;;;;;-1.11;77.75;101100.77;106066;1268;68776;-76
2021/12/04 00:04:35;;;;;;;31.30;15.50;;;;;;;-1.08;77.27;101097.98;106086;1268;73304;-77
2021/12/04 00:07:07;;;;;;;30.60;15.80;;;;;;;-1.07;77.72;101088.57;105750;1271;60311;-78
2021/12/04 00:09:37;;;;;;;28.10;15.80;;;;;;;-1.06;77.77;101090.79;106060;1268;60914;-76
2021/12/04 00:12:07;;;;;;;20.00;11.20;;;;;;;-1.11;78.13;101090.19;105962;1268;74208;-74
2021/12/04 00:14:37;;;;;;;30.10;16.80;;;;;;;-1.12;76.92;101089.50;105912;1271;72760;-76
2021/12/04 00:17:06;;;;;;;33.30;15.50;;;;;;;-1.20;76.53;101088.45;106093;1268;69845;-77
2021/12/04 00:19:35;;;;;;;25.60;14.10;;;;;;;-1.25;76.51;101083.77;105864;1269;73560;-77
2021/12/04 00:22:04;;;;;;;30.90;15.00;;;;;;;-1.25;76.46;101088.71;106032;1268;62665;-79
2021/12/04 00:24:33;;;;;;;28.80;15.20;;;;;;;-1.24;76.95;101083.94;105806;1269;61067;-78
2021/12/04 00:27:03;;;;;;;32.40;14.90;;;;;;;-1.23;77.23;101083.40;105852;1271;74827;-80
2021/12/04 00:29:32;;;;;;;27.80;15.10;;;;;;;-1.22;76.79;101084.05;105861;1269;72573;-75
2021/12/04 00:32:53;;;;;;;28.90;15.90;;;;;;;-1.24;76.37;101088.53;106121;1265;68351;-77
2021/12/04 00:35:46;;;;;;;27.90;14.80;;;;;;;-1.31;76.33;101082.16;105947;1268;72316;-75
2021/12/04 00:49:16;;;;;;;31.90;14.50;;;;;;;-1.36;77.11;101098.14;105936;1268;70294;-74
2021/12/04 00:51:55;;;;;;;34.80;15.50;;;;;;;-1.33;77.52;101082.70;106064;1269;71209;-74
2021/12/04 00:54:26;;;;;;;31.40;16.30;;;;;;;-1.22;77.37;101076.87;105854;1269;61046;-74
2021/12/04 00:56:55;;;;;;;26.40;15.00;;;;;;;-1.16;77.41;101080.70;105737;1268;61871;-75
2021/12/04 00:59:24;;;;;;;16.10;7.70;;;;;;;-1.09;77.06;101089.46;106051;1269;72247;-74
2021/12/04 01:01:53;;;;;;;23.80;11.40;;;;;;;-1.14;76.62;101091.60;105814;1271;72277;-76
2021/12/04 01:04:23;;;;;;;25.30;11.70;;;;;;;-1.21;76.99;101084.71;105805;1271;68608;-73
2021/12/04 01:06:52;;;;;;;31.40;15.30;;;;;;;-1.27;77.02;101088.59;106036;1268;74029;-75
2021/12/04 01:09:23;;;;;;;29.90;15.10;;;;;;;-1.36;77.31;101094.89;106122;1270;60329;-76
2021/12/04 01:11:53;;;;;;;30.10;15.20;;;;;;;-1.39;77.59;101090.16;105794;1271;62106;-76
2021/12/04 01:14:26;;;;;;;28.10;14.10;;;;;;;-1.40;77.14;101087.09;105835;1270;74466;-71
2021/12/04 01:16:55;;;;;;;32.90;16.90;;;;;;;-1.40;76.64;101084.88;106124;1268;69531;-74
2021/12/04 01:19:29;;;;;;;32.60;16.10;;;;;;;-1.36;77.23;101088.56;106069;1270;70541;-75
2021/12/04 01:21:58;;;;;;;26.80;13.70;;;;;;;-1.29;77.44;101081.80;106175;1268;73839;-74
2021/12/04 01:24:27;;;;;;;29.20;15.40;;;;;;;-1.24;77.21;101077.94;105906;1268;59738;-77
2021/12/04 01:26:56;;;;;;;31.10;16.70;;;;;;;-1.17;77.00;101080.73;105986;1269;59589;-75
2021/12/04 01:29:25;;;;;;;30.70;16.10;;;;;;;-1.15;76.80;101069.57;106137;1268;72854;-76
2021/12/04 01:31:54;;;;;;;36.70;16.40;;;;;;;-1.15;76.32;101065.29;105919;1271;72008;-79
2021/12/04 01:34:22;;;;;;;30.50;15.60;;;;;;;-1.15;76.82;101076.23;105905;1269;70408;-71
2021/12/04 01:36:52;;;;;;;31.50;15.50;;;;;;;-1.11;76.74;101083.70;105940;1268;74690;-74
2021/12/04 01:39:20;;;;;;;28.70;14.10;;;;;;;-1.07;76.40;101088.23;105845;1269;62695;-75
2021/12/04 01:41:49;;;;;;;27.70;14.10;;;;;;;-1.06;76.39;101091.47;105871;1269;59537;-76
2021/12/04 01:44:18;;;;;;;29.60;14.20;;;;;;;-1.03;76.26;101092.60;105857;1272;72427;-76
2021/12/04 01:46:47;;;;;;;27.40;15.10;;;;;;;-1.01;76.01;101087.27;105908;1269;70402;-76
2021/12/04 01:49:16;;;;;;;23.90;11.30;;;;;;;-1.02;76.08;101086.77;105907;1269;69765;-75
2021/12/04 01:51:44;;;;;;;27.40;13.70;;;;;;;-1.00;75.69;101083.99;106090;1268;74359;-75
2021/12/04 01:54:13;;;;;;;25.60;14.10;;;;;;;-0.93;75.53;101080.45;106159;1268;63082;-75
2021/12/04 01:56:42;;;;;;;23.60;10.90;;;;;;;-0.99;75.33;101083.65;105884;1268;59565;-78
2021/12/04 01:59:11;;;;;;;26.10;13.40;;;;;;;-1.10;75.55;101092.21;105962;1271;72949;-78
2021/12/04 02:01:42;;;;;;;27.20;13.60;;;;;;;-1.28;76.34;101089.98;105817;1269;73203;-75
2021/12/04 02:04:11;;;;;;;27.70;11.90;;;;;;;-1.33;76.62;101081.67;106130;1268;70814;-73
2021/12/04 02:06:40;;;;;;;16.80;8.50;;;;;;;-1.28;76.39;101081.61;107313;1270;74458;-74
2021/12/04 02:09:09;;;;;;;20.00;9.80;;;;;;;-1.23;76.29;101072.11;106182;1268;61315;-76
2021/12/04 02:11:38;;;;;;;28.50;13.60;;;;;;;-1.34;76.39;101065.62;105953;1269;58982;-75
2021/12/04 02:14:07;;;;;;;26.20;13.30;;;;;;;-1.42;76.45;101060.66;106040;1268;72243;-74
2021/12/04 02:16:36;;;;;;;26.10;12.50;;;;;;;-1.43;76.16;101062.04;106138;1266;69848;-74
2021/12/04 02:19:05;;;;;;;18.00;9.20;;;;;;;-1.41;76.52;101067.14;105955;1269;68761;-76
2021/12/04 02:21:34;;;;;;;18.70;9.10;;;;;;;-1.42;76.22;101064.92;106027;1268;71047;-79
2021/12/04 02:24:04;;;;;;;20.80;9.90;;;;;;;-1.35;76.30;101063.62;106061;1268;62605;-75
2021/12/04 02:26:33;;;;;;;22.00;10.80;;;;;;;-1.28;76.38;101065.70;106015;1268;59548;-74
2021/12/04 02:29:02;;;;;;;26.60;11.50;;;;;;;-1.34;76.07;101067.02;105856;1270;72882;-77
2021/12/04 02:31:31;;;;;;;30.20;13.70;;;;;;;-1.44;76.36;101064.77;105893;1271;71599;-77
2021/12/04 02:34:00;;;;;;;24.20;13.20;;;;;;;-1.51;76.99;101055.34;105942;1269;70061;-74
2021/12/04 02:36:29;;;;;;;30.80;14.10;;;;;;;-1.49;77.52;101053.59;105834;1271;74772;-74
2021/12/04 02:38:57;;;;;;;24.30;13.60;;;;;;;-1.43;77.59;101050.77;105812;1266;61819;-76
2021/12/04 02:41:26;;;;;;;28.80;14.30;;;;;;;-1.34;77.76;101049.24;105802;1271;61854;-72
2021/12/04 02:43:55;;;;;;;21.70;11.10;;;;;;;-1.29;77.25;101054.96;106049;1268;73202;-76
2021/12/04 02:46:24;;;;;;;22.20;10.10;;;;;;;-1.25;76.19;101052.15;105968;1266;70823;-76
2021/12/04 02:48:53;;;;;;;25.00;12.30;;;;;;;-1.23;76.07;101047.66;105834;1269;70081;-76
2021/12/04 02:51:22;;;;;;;24.80;14.00;;;;;;;-1.27;76.46;101049.27;105912;1270;72087;-78
2021/12/04 02:53:51;;;;;;;25.90;13.80;;;;;;;-1.26;76.53;101057.47;106030;1269;59612;-80
2021/12/04 02:56:20;;;;;;;29.10;14.40;;;;;;;-1.22;76.40;101067.14;106075;1271;58669;-78
2021/12/04 02:58:51;;;;;;;26.70;15.00;;;;;;;-1.20;76.61;101067.61;106072;1269;74748;-78
2021/12/04 03:01:20;;;;;;;13.20;6.80;;;;;;;-1.16;75.97;101076.25;106187;1266;72973;-77
2021/12/04 03:03:49;;;;;;;19.30;10.20;;;;;;;-1.14;75.69;101087.32;106023;1269;68960;-79
2021/12/04 03:06:18;;;;;;;18.10;9.80;;;;;;;-1.13;75.43;101092.28;106016;1269;72391;-79
2021/12/04 03:08:47;;;;;;;16.80;8.10;;;;;;;-1.16;75.55;101084.80;106015;1270;59604;-80
2021/12/04 03:11:16;;;;;;;13.70;5.90;;;;;;;-1.16;76.05;101075.05;105995;1269;59577;-84
2021/12/04 03:13:45;;;;;;;13.80;8.20;;;;;;;-1.25;76.11;101073.17;105863;1271;72559;-82
2021/12/04 03:16:14;;;;;;;17.50;9.60;;;;;;;-1.26;76.29;101075.58;105955;1268;69693;-79
2021/12/04 03:18:43;;;;;;;26.20;14.00;;;;;;;-1.34;76.28;101076.58;105985;1269;69020;-81
2021/12/04 03:21:12;;;;;;;17.40;8.30;;;;;;;-1.46;76.34;101077.28;106013;1269;72023;-78
2021/12/04 03:23:52;;;;;;;28.80;13.60;;;;;;;-1.53;76.66;101062.73;105833;1271;61432;-77
2021/12/04 03:26:21;;;;;;;26.70;14.10;;;;;;;-1.59;77.48;101054.11;105852;1271;61749;-77
2021/12/04 03:28:51;;;;;;;24.70;14.80;;;;;;;-1.58;78.37;101055.46;105958;1266;73034;-81
2021/12/04 03:42:11;;;;;;;28.70;13.60;;;;;;;-1.51;76.58;101043.73;106079;1266;60808;-78
2021/12/04 03:44:40;;;;;;;25.30;13.40;;;;;;;-1.58;76.37;101040.09;105773;1270;73598;-74
2021/12/04 03:47:10;;;;;;;35.20;14.70;;;;;;;-1.62;76.31;101033.32;106111;1266;70442;-74
2021/12/04 03:49:39;;;;;;;33.00;14.70;;;;;;;-1.61;76.73;101036.02;106076;1269;69664;-74
2021/12/04 03:52:09;;;;;;;30.90;14.70;;;;;;;-1.53;76.57;101040.17;105955;1268;74337;-74
2021/12/04 03:54:38;;;;;;;17.20;8.70;;;;;;;-1.45;76.78;101043.63;105802;1268;60249;-74
2021/12/04 03:57:06;;;;;;;29.40;14.80;;;;;;;-1.44;76.41;101039.84;105621;1271;60948;-75
2021/12/04 03:59:39;;;;;;;31.30;15.30;;;;;;;-1.46;76.85;101041.59;105975;1266;75618;-75
2021/12/04 04:02:10;;;;;;;28.30;15.40;;;;;;;-1.45;76.92;101045.66;105811;1270;70214;-74
2021/12/04 04:04:39;;;;;;;32.30;15.00;;;;;;;-1.42;76.88;101046.83;106009;1266;68899;-76
2021/12/04 04:07:08;;;;;;;24.90;14.00;;;;;;;-1.34;76.39;101045.99;105805;1269;71208;-77
2021/12/04 04:09:37;;;;;;;25.80;15.10;;;;;;;-1.31;76.41;101046.11;105979;1266;59586;-75
2021/12/04 04:12:06;;;;;;;26.20;13.00;;;;;;;-1.32;76.21;101053.30;105654;1266;60102;-73
2021/12/04 04:14:37;;;;;;;27.90;14.10;;;;;;;-1.29;75.88;101049.14;106025;1268;74923;-75
2021/12/04 04:17:05;;;;;;;30.70;14.30;;;;;;;-1.35;76.08;101043.43;105946;1268;74111;-75
2021/12/04 04:19:34;;;;;;;17.50;9.40;;;;;;;-1.36;75.78;101039.86;106121;1266;70902;-75
2021/12/04 04:22:04;;;;;;;17.90;9.30;;;;;;;-1.44;76.10;101037.96;106141;1268;72881;-75
2021/12/04 04:24:33;;;;;;;27.90;14.40;;;;;;;-1.50;76.17;101045.42;105949;1267;62353;-74
2021/12/04 04:27:02;;;;;;;28.40;15.20;;;;;;;-1.57;77.01;101042.81;106103;1269;59590;-75
2021/12/04 04:29:31;;;;;;;24.90;12.50;;;;;;;-1.55;76.93;101038.33;105790;1271;71879;-71
2021/12/04 04:32:00;;;;;;;23.90;9.80;;;;;;;-1.53;76.36;101032.14;105618;1271;70862;-74
2021/12/04 04:34:31;;;;;;;24.00;11.60;;;;;;;-1.58;76.63;101035.13;105790;1270;67997;-76
2021/12/04 04:38:09;;;;;;;;;;;;;;;;;;;;;
2021/12/04 05:00:12;;;;;;;29.00;14.30;;;;;;;-1.93;77.77;101052.95;106046;1268;59590;-73
2021/12/04 05:11:03;;;;;;;31.40;16.40;;;;;;;-1.66;77.93;101066.50;106070;1266;72843;-76
2021/12/04 05:13:32;;;;;;;23.50;12.50;;;;;;;-1.65;77.90;101071.10;106193;1269;60233;-76
2021/12/04 05:16:11;;;;;;;12.60;6.90;;;;;;;-1.57;76.93;101076.96;105831;1271;59669;-76
2021/12/04 05:18:57;;;;;;;20.00;9.40;;;;;;;-1.53;76.63;101085.79;106165;1266;74501;-77
2021/12/04 05:21:26;;;;;;;11.90;5.80;;;;;;;-1.66;76.71;101090.43;106110;1268;72903;-76
2021/12/04 05:23:55;;;;;;;27.10;12.30;;;;;;;-1.77;77.17;101081.73;106000;1268;69052;-77
2021/12/04 05:26:27;;;;;;;30.00;15.00;;;;;;;-1.82;77.44;101075.83;105939;1271;71235;-80
2021/12/04 05:28:58;;;;;;;32.20;16.30;;;;;;;-1.80;78.39;101071.52;106119;1266;60156;-77
2021/12/04 05:31:28;;;;;;;31.10;17.40;;;;;;;-1.73;78.29;101064.59;105965;1268;61356;-76
2021/12/04 05:33:57;;;;;;;35.00;19.30;;;;;;;-1.64;78.01;101060.50;106183;1266;73455;-75
2021/12/04 05:36:26;;;;;;;34.30;18.60;;;;;;;-1.57;77.83;101065.70;106168;1269;70804;-76
2021/12/04 05:38:59;;;;;;;34.50;14.70;;;;;;;-1.53;77.77;101066.65;106022;1268;71514;-77
2021/12/04 05:41:27;;;;;;;33.30;16.20;;;;;;;-1.48;76.94;101066.21;106135;1266;74296;-79
2021/12/04 05:43:58;;;;;;;33.10;17.50;;;;;;;-1.46;76.81;101065.00;106077;1270;59688;-81
2021/12/04 05:46:33;;;;;;;31.70;16.80;;;;;;;-1.44;77.22;101067.34;106105;1269;59827;-79
2021/12/04 05:49:17;;;;;;;31.90;16.50;;;;;;;-1.44;76.59;101074.70;106140;1268;74457;-80
2021/12/04 05:54:43;;;;;;;40.90;22.70;;;;;;;-1.55;76.92;101071.46;106078;1268;70818;-78
2021/12/04 05:57:12;;;;;;;36.20;19.20;;;;;;;-1.48;76.94;101079.54;105886;1271;72183;-77
2021/12/04 05:59:41;;;;;;;53.70;25.10;;;;;;;-1.44;77.03;101078.27;105842;1271;60437;-82
2021/12/04 06:02:10;;;;;;;41.20;19.70;;;;;;;-1.41;77.03;101077.02;106091;1268;59751;-81
2021/12/04 06:04:39;;;;;;;35.50;17.80;;;;;;;-1.40;76.57;101077.38;106156;1269;73629;-81
2021/12/04 06:07:08;;;;;;;29.80;17.20;;;;;;;-1.41;76.55;101075.50;106081;1270;71061;-79
2021/12/04 06:09:37;;;;;;;31.20;15.80;;;;;;;-1.44;76.49;101067.00;106108;1269;67037;-74
2021/12/04 06:12:08;;;;;;;32.20;16.30;;;;;;;-1.47;76.31;101067.91;106175;1266;73665;-79
2021/12/04 06:14:36;;;;;;;31.00;16.60;;;;;;;-1.51;76.27;101067.98;105942;1269;63965;-76
2021/12/04 06:17:05;;;;;;;34.20;17.30;;;;;;;-1.53;76.30;101070.25;106001;1269;62267;-75
2021/12/04 06:25:14;;;;;;;26.80;13.00;;;;;;;-1.81;76.67;101072.73;106161;1268;70379;-77
2021/12/04 06:27:43;;;;;;;28.40;12.90;;;;;;;-1.92;76.98;101075.98;106085;1269;73708;-76
2021/12/04 06:30:15;;;;;;;19.10;9.30;;;;;;;-1.99;77.32;101076.42;106080;1268;59319;-77
2021/12/04 06:32:46;;;;;;;28.80;14.40;;;;;;;-2.07;77.66;101075.34;105928;1269;60525;-78
2021/12/04 06:35:17;;;;;;;31.20;16.10;;;;;;;-2.15;77.83;101072.05;105922;1268;73648;-80
2021/12/04 06:37:48;;;;;;;32.00;18.50;;;;;;;-2.21;77.92;101068.04;106227;1266;70398;-79
2021/12/04 06:40:18;;;;;;;36.40;17.40;;;;;;;-2.24;78.22;101063.48;106084;1268;70920;-78
2021/12/04 06:42:47;;;;;;;39.50;20.00;;;;;;;-2.21;78.16;101060.70;105954;1268;72992;-78
2021/12/04 06:45:15;;;;;;;39.80;20.10;;;;;;;-2.18;78.55;101059.62;106045;1266;60945;-78
2021/12/04 06:47:52;;;;;;;49.70;20.90;;;;;;;-2.12;78.96;101059.54;105969;1270;60899;-85
2021/12/04 06:50:32;;;;;;;40.40;20.00;;;;;;;-2.04;78.29;101060.45;105885;1269;75089;-82
2021/12/04 06:53:08;;;;;;;37.20;19.40;;;;;;;-1.97;77.98;101054.88;105762;1270;71272;-81
2021/12/04 06:55:40;;;;;;;47.50;22.00;;;;;;;-1.93;78.10;101056.36;105934;1270;71703;-87
2021/12/04 06:58:10;;;;;;;36.70;19.90;;;;;;;-1.89;77.65;101059.19;106222;1270;74298;-82
2021/12/04 07:00:39;;;;;;;42.60;19.60;;;;;;;-1.82;77.65;101062.86;106158;1269;60569;-86
2021/12/04 07:03:08;;;;;;;40.70;19.80;;;;;;;-1.76;77.34;101059.52;106257;1265;59059;-87
2021/12/04 07:05:37;;;;;;;42.40;22.20;;;;;;;-1.71;77.39;101060.63;106087;1270;72498;-83
2021/12/04 07:08:06;;;;;;;34.70;16.60;;;;;;;-1.66;77.00;101068.05;106001;1271;70516;-83
2021/12/04 07:10:35;;;;;;;27.30;13.60;;;;;;;-1.64;76.30;101066.14;106013;1268;69254;-83
2021/12/04 07:13:04;;;;;;;41.90;20.10;;;;;;;-1.63;76.40;101064.77;106839;1268;73181;-91
2021/12/04 07:15:33;;;;;;;33.70;15.10;;;;;;;-1.58;76.67;101070.51;107090;1271;60725;-88
2021/12/04 07:18:03;;;;;;;26.90;10.60;;;;;;;-1.51;76.50;101073.63;107035;1268;59749;-90
2021/12/04 07:20:32;;;;;;;27.10;11.20;;;;;;;-1.44;76.11;101075.71;106814;1268;74427;-92
2021/12/04 07:23:00;;;;;;;20.40;11.60;;;;;;;-1.45;75.70;101072.50;106497;1268;71881;-80
2021/12/04 07:25:29;;;;;;;24.00;10.20;;;;;;;-1.46;75.63;101077.28;106357;1268;69315;-81
2021/12/04 07:27:58;;;;;;;33.70;15.60;;;;;;;-1.40;75.44;101074.61;106178;1265;71246;-81
2021/12/04 07:30:27;;;;;;;22.50;9.60;;;;;;;-1.38;75.32;101074.23;106265;1266;59553;-83
2021/12/04 07:32:56;;;;;;;35.40;13.40;;;;;;;-1.34;75.24;101074.35;106127;1270;59482;-82
2021/12/04 07:35:25;;;;;;;29.70;12.20;;;;;;;-1.32;74.69;101076.20;106164;1270;74759;-82
2021/12/04 07:37:54;;;;;;;26.50;13.30;;;;;;;-1.25;74.65;101072.98;105957;1265;72734;-83
2021/12/04 07:40:24;;;;;;;29.60;13.30;;;;;;;-1.20;74.44;101070.52;105942;1268;70122;-82
2021/12/04 07:42:53;;;;;;;33.40;15.90;;;;;;;-1.14;74.50;101064.95;105999;1265;75508;-84
2021/12/04 07:45:21;;;;;;;20.00;9.40;;;;;;;-1.07;74.26;101066.17;105866;1268;59936;-84
2021/12/04 07:47:50;;;;;;;26.40;11.80;;;;;;;-0.98;73.79;101070.45;106020;1269;61745;-81
2021/12/04 07:50:19;;;;;;;21.40;11.30;;;;;;;-0.93;73.74;101063.85;106017;1266;76197;-82
2021/12/04 07:52:49;;;;;;;32.10;17.90;;;;;;;-0.87;73.68;101060.15;105698;1270;72540;-82
2021/12/04 07:55:18;;;;;;;34.90;18.70;;;;;;;-0.93;73.63;101058.90;105976;1268;69926;-89
2021/12/04 07:57:47;;;;;;;24.70;14.70;;;;;;;-0.79;73.40;101060.34;106051;1270;72588;-75
2021/12/04 08:00:18;;;;;;;34.70;18.10;;;;;;;-0.72;73.89;101059.17;105850;1271;59484;-82
2021/12/04 08:02:48;;;;;;;36.30;16.50;;;;;;;-0.62;74.33;101047.15;105702;1271;60550;-78
2021/12/04 08:05:18;;;;;;;24.00;11.90;;;;;;;-0.49;73.04;101048.60;105730;1269;74950;-78
2021/12/04 08:07:47;;;;;;;20.10;10.70;;;;;;;-0.41;72.29;101047.73;105730;1271;72840;-79
2021/12/04 08:10:18;;;;;;;32.30;16.60;;;;;;;-0.40;72.07;101048.39;105671;1271;69143;-73
2021/12/04 08:12:47;;;;;;;27.60;13.30;;;;;;;-0.40;71.76;101044.10;105844;1270;73953;-68
2021/12/04 08:15:17;;;;;;;24.60;12.80;;;;;;;-0.36;71.45;101044.02;105893;1268;60699;-69
2021/12/04 08:17:46;;;;;;;29.20;14.00;;;;;;;-0.31;71.36;101048.73;105745;1269;59208;-78
2021/12/04 08:20:16;;;;;;;24.40;9.90;;;;;;;-0.30;71.39;101048.02;105745;1271;71928;-74
2021/12/04 08:22:46;;;;;;;26.40;14.80;;;;;;;-0.27;71.26;101045.73;105860;1268;72388;-75
2021/12/04 08:25:17;;;;;;;19.80;11.00;;;;;;;-0.23;71.25;101049.23;105865;1268;70472;-74
2021/12/04 08:27:48;;;;;;;28.70;13.20;;;;;;;-0.13;70.70;101044.54;105921;1269;71601;-78
2021/12/04 08:30:21;;;;;;;26.10;13.90;;;;;;;-0.06;70.26;101040.45;105710;1271;59721;-75
2021/12/04 08:32:52;;;;;;;21.40;9.20;;;;;;;-0.07;70.29;101031.91;105735;1271;61313;-70
2021/12/04 08:35:23;;;;;;;31.90;15.20;;;;;;;-0.05;70.17;101025.36;105802;1268;72743;-74
2021/12/04 08:37:54;;;;;;;27.40;14.70;;;;;;;-0.03;70.07;101020.16;105928;1272;71336;-74
2021/12/04 08:40:27;;;;;;;33.60;17.10;;;;;;;0.08;70.34;101018.89;105848;1271;71079;-75
2021/12/04 08:42:56;;;;;;;33.80;18.00;;;;;;;0.20;69.84;101020.14;106155;1269;74623;-75
2021/12/04 08:45:25;;;;;;;25.30;13.00;;;;;;;0.20;69.16;101015.48;105877;1268;60234;-77
2021/12/04 08:47:56;;;;;;;37.60;17.20;;;;;;;0.37;68.73;101013.73;105962;1270;60689;-76
2021/12/04 08:50:28;;;;;;;30.60;17.00;;;;;;;0.39;69.15;101008.52;105760;1271;73936;-75
2021/12/04 08:52:58;;;;;;;27.60;14.10;;;;;;;0.51;68.56;101000.15;105716;1268;71820;-80
2021/12/04 08:55:31;;;;;;;31.80;15.80;;;;;;;0.63;67.99;100991.28;106164;1268;70968;-76
2021/12/04 08:58:00;;;;;;;;;;;;;;;0.62;67.59;100984.63;105993;1268;72439;-78
2021/12/04 09:00:36;;;;;;;24.40;11.90;;;;;;;0.65;67.44;100981.27;106031;1269;59784;-75
2021/12/04 09:03:05;;;;;;;32.50;15.50;;;;;;;0.70;67.41;100978.56;106047;1268;60545;-80
2021/12/04 09:05:36;;;;;;;38.20;18.30;;;;;;;0.72;67.32;100974.23;105960;1268;73766;-75
2021/12/04 09:08:07;;;;;;;38.30;18.20;;;;;;;0.77;67.36;100963.64;105909;1271;72813;-75
2021/12/04 09:10:36;;;;;;;35.90;18.40;;;;;;;0.84;66.26;100959.67;105815;1269;71099;-77
2021/12/04 09:13:05;;;;;;;33.60;18.60;;;;;;;0.91;65.63;100954.85;105632;1271;73725;-78
2021/12/04 09:15:36;;;;;;;29.40;14.60;;;;;;;0.93;65.15;100952.18;105755;1270;60366;-72
2021/12/04 09:18:05;;;;;;;31.50;15.80;;;;;;;1.05;64.76;100952.02;105926;1269;60285;-78
2021/12/04 09:20:34;;;;;;;26.90;15.00;;;;;;;1.07;63.88;100954.19;105727;1268;72897;-78
2021/12/04 09:23:04;;;;;;;28.80;13.50;;;;;;;1.18;64.83;100947.19;105853;1269;70335;-80
2021/12/04 09:25:37;;;;;;;27.40;13.60;;;;;;;1.26;64.40;100948.48;105778;1271;69274;-77
2021/12/04 10:13:47;;;;;;;21.60;11.90;;;;;;;1.96;59.51;100867.95;105906;1270;72347;-76
2021/12/04 10:33:59;;;;;;;33.70;18.30;;;;;;;3.41;53.32;100828.33;106224;1268;68772;-74
2021/12/04 10:36:30;;;;;;;40.60;20.20;;;;;;;3.53;54.11;100821.27;106141;1265;73101;-77
2021/12/04 10:39:00;;;;;;;39.20;21.90;;;;;;;3.94;55.40;100818.65;106130;1271;62088;-76
2021/12/04 10:41:41;;;;;;;37.40;21.30;;;;;;;3.94;52.84;100813.85;105876;1268;59522;-74
2021/12/04 10:44:13;;;;;;;30.20;18.20;;;;;;;4.13;54.24;100808.38;105838;1268;73614;-72
2021/12/04 10:47:06;;;;;;;35.20;18.90;;;;;;;4.62;54.31;100803.05;105940;1268;73824;-73
2021/12/04 10:49:51;;;;;;;36.80;20.50;;;;;;;4.71;54.84;100799.00;105688;1271;70883;-73
2021/12/04 11:01:11;;;;;;;31.60;20.10;;;;;;;5.45;50.34;100793.23;106089;1268;73689;-72
2021/12/04 11:03:50;;;;;;;32.20;18.50;;;;;;;5.56;51.20;100790.21;105875;1268;71435;-77
2021/12/04 11:21:41;;;;;;;32.70;19.30;;;;;;;6.53;46.60;100773.80;105734;1270;70772;-71
2021/12/04 11:36:07;;;;;;;34.00;21.60;;;;;;;5.84;44.35;100752.03;105788;1270;72034;-75
2021/12/04 11:44:32;;;;;;;31.40;17.20;;;;;;;5.77;45.44;100731.80;105834;1268;72433;-72
2021/12/04 11:47:02;;;;;;;31.90;19.90;;;;;;;6.47;42.96;100719.79;105840;1268;60818;-73
2021/12/04 11:49:35;;;;;;;34.90;21.10;;;;;;;6.76;43.14;100715.36;105940;1268;60209;-76
2021/12/04 11:52:24;;;;;;;33.40;19.90;;;;;;;7.32;43.02;100708.04;105770;1269;73646;-73
2021/12/04 11:55:00;;;;;;;33.30;20.10;;;;;;;7.30;40.15;100708.97;106158;1271;72677;-72
2021/12/04 11:57:34;;;;;;;36.80;20.50;;;;;;;7.35;41.61;100701.59;105927;1270;71470;-79
2021/12/04 12:00:26;;;;;;;31.00;19.70;;;;;;;7.51;39.66;100703.43;106140;1269;73188;-89
2021/12/04 12:03:20;;;;;;;29.00;19.50;;;;;;;8.27;39.34;100702.79;105970;1272;61782;-74
2021/12/04 12:05:59;;;;;;;31.80;19.60;;;;;;;9.05;40.65;100694.96;105861;1270;60322;-78
2021/12/04 12:08:37;;;;;;;32.80;19.00;;;;;;;9.24;38.46;100691.33;106038;1270;75119;-72
2021/12/04 12:11:19;;;;;;;26.90;16.50;;;;;;;9.51;38.00;100688.95;105832;1268;72208;-76
2021/12/04 12:14:06;;;;;;;26.90;17.90;;;;;;;9.17;37.29;100689.27;105994;1272;69083;-78
2021/12/04 12:16:39;;;;;;;30.90;19.40;;;;;;;8.89;37.19;100684.05;105785;1270;74025;-76
2021/12/04 12:19:21;;;;;;;31.50;19.50;;;;;;;9.09;37.91;100682.66;105791;1271;61011;-74
2021/12/04 12:24:52;;;;;;;29.30;19.00;;;;;;;9.63;35.91;100670.00;105765;1271;72522;-76
2021/12/04 12:34:03;;;;;;;30.90;18.50;;;;;;;9.45;35.84;100666.20;105929;1271;74811;-78
2021/12/04 12:36:33;;;;;;;27.60;18.40;;;;;;;8.73;36.52;100660.38;105946;1271;60625;-72
2021/12/04 12:39:05;;;;;;;23.50;16.60;;;;;;;9.55;35.79;100665.55;105695;1268;470703;-76
2021/12/04 12:41:43;;;;;;;29.30;18.70;;;;;;;9.27;34.66;100662.40;106006;1271;75578;-75
2021/12/04 12:44:27;;;;;;;30.10;19.80;;;;;;;8.91;36.09;100662.52;105849;1271;70457;-76
2021/12/04 12:47:02;;;;;;;31.30;19.60;;;;;;;9.16;35.88;100664.02;105698;1272;70578;-75
2021/12/04 12:49:38;;;;;;;31.10;20.30;;;;;;;9.18;35.76;100659.90;105898;1268;73477;-72
2021/12/04 12:52:21;;;;;;;35.10;19.80;;;;;;;9.29;36.12;100663.11;105808;1271;60868;-72
2021/12/04 12:55:04;;;;;;;33.40;21.60;;;;;;;9.29;35.68;100657.90;105769;1271;61737;-71
2021/12/04 12:57:40;;;;;;;35.80;20.60;;;;;;;9.28;36.57;100658.31;105744;1271;75108;-77
2021/12/04 13:12:08;;;;;;;34.50;22.40;;;;;;;9.48;35.79;100658.33;105980;1271;60306;-71
2021/12/04 13:14:40;;;;;;;37.10;21.00;;;;;;;9.77;36.29;100656.90;106277;1269;75120;-71
2021/12/04 13:17:19;;;;;;;34.30;20.40;;;;;;;9.34;35.10;100651.67;106029;1271;72888;-72
2021/12/04 13:19:51;;;;;;;31.70;19.80;;;;;;;9.55;35.89;100654.57;105770;1271;70675;-71
2021/12/04 13:22:23;;;;;;;34.70;21.00;;;;;;;9.99;35.06;100651.14;106001;1271;74181;-70
2021/12/04 13:24:54;;;;;;;32.80;19.00;;;;;;;9.78;34.37;100651.57;105721;1271;59492;-71
2021/12/04 13:30:18;;;;;;;30.80;17.60;;;;;;;9.71;34.47;100648.95;105702;1271;72419;-72
2021/12/04 13:32:49;;;;;;;31.40;18.00;;;;;;;9.25;34.07;100647.41;105633;1271;70374;-73
2021/12/04 13:35:23;;;;;;;29.20;17.20;;;;;;;8.88;34.78;100638.92;105667;1272;70692;-75
2021/12/04 13:38:00;;;;;;;30.30;17.70;;;;;;;9.04;34.86;100643.64;105465;1272;73758;-72
2021/12/04 13:40:29;;;;;;;29.90;16.80;;;;;;;9.09;34.50;100644.86;105762;1272;60579;-73
2021/12/04 13:42:59;;;;;;;27.60;16.40;;;;;;;8.88;35.06;100644.00;105702;1271;61093;-73
2021/12/04 13:45:28;;;;;;;34.50;19.40;;;;;;;8.98;35.41;100642.64;105803;1271;72359;-72
2021/12/04 13:47:59;;;;;;;27.90;17.90;;;;;;;8.82;35.03;100640.77;105895;1271;70388;-69
2021/12/04 13:53:28;;;;;;;30.80;17.00;;;;;;;8.24;35.81;100641.69;105892;1271;73075;-70
2021/12/04 13:56:07;;;;;;;31.50;17.40;;;;;;;8.05;36.47;100638.39;105853;1271;61577;-71
2021/12/04 13:58:59;;;;;;;31.10;17.30;;;;;;;7.58;37.19;100640.29;105941;1271;60224;-72
2021/12/04 14:01:30;;;;;;;32.30;17.80;;;;;;;7.02;37.88;100644.13;105707;1271;73365;-72
2021/12/04 14:04:01;;;;;;;28.00;17.60;;;;;;;6.61;39.24;100642.69;105808;1268;72305;-72
2021/12/04 14:06:30;;;;;;;32.10;18.10;;;;;;;5.88;40.93;100644.80;105570;1271;70253;-71
2021/12/04 14:09:07;;;;;;;29.00;17.50;;;;;;;5.50;41.74;100638.34;105851;1269;71227;-72
2021/12/04 14:11:39;;;;;;;31.10;17.00;;;;;;;5.05;43.06;100639.63;105706;1271;60586;-72
2021/12/04 14:14:19;;;;;;;33.90;17.80;;;;;;;4.59;43.81;100637.95;105859;1271;60287;-72
2021/12/04 14:16:51;;;;;;;28.60;15.80;;;;;;;4.06;44.44;100636.83;105989;1271;75174;-70
2021/12/04 14:19:28;;;;;;;30.90;16.40;;;;;;;3.81;45.41;100637.80;105802;1271;70605;-72
2021/12/04 14:22:03;;;;;;;38.30;16.80;;;;;;;3.52;44.39;100640.30;105879;1271;68752;-74
2021/12/04 14:24:33;;;;;;;31.50;16.80;;;;;;;3.25;46.42;100639.95;105937;1268;72001;-75
2021/12/04 14:27:04;;;;;;;31.00;16.70;;;;;;;2.99;47.59;100639.52;105986;1266;59722;-75
2021/12/04 14:29:39;;;;;;;103.10;28.50;;;;;;;2.78;48.56;100642.27;105808;1270;61096;-72
2021/12/04 14:32:08;;;;;;;38.30;21.60;;;;;;;2.56;51.45;100648.33;105747;1271;74084;-72
2021/12/04 14:34:37;;;;;;;54.40;29.70;;;;;;;2.43;51.79;100642.83;105867;1271;70083;-75
2021/12/04 14:37:15;;;;;;;75.80;36.60;;;;;;;2.31;52.68;100640.56;105896;1271;68790;-74
2021/12/04 14:39:48;;;;;;;44.30;24.30;;;;;;;2.18;52.29;100647.80;105679;1271;74024;-75